Terminal Aerodrome Forecast
Issued by NWS Charleston, WV

Current Version | Previous Version | Text Only | Print | Product List | Glossary Off
Versions: 1 2 3 4 5 6 7 8 9 10 11 12 13 14 15 16 17 18 19 20 21

000
FTUS41 KRLX 100228 AAA
TAFPKB
TAF AMD
KPKB 100228Z 1002/1024 25009G15KT 6SM -SHSN BKN015 OVC025
      TEMPO 1002/1004 3SM -SHSN BR SCT015 OVC025
     FM100400 25009KT P6SM OVC015
     FM101500 24010G16KT P6SM BKN015
     FM101700 23011G17KT P6SM BKN025
     FM101900 23011G17KT P6SM BKN070
     FM102200 22009KT P6SM BKN080=

USA.gov is the U.S. government's official web portal to all federal, state and local government web resources and services.